Time;durP1;ratioP1;P1;durP2;ratioP2;P2;SDS_P1;SDS_P2;PMS_P1;PMS_P2;Temp;Humidity;BMP_temperature;BMP_pressure;BME280_temperature;BME280_humidity;BME280_pressure;Samples;Min_cycle;Max_cycle;Signal;HPM_P1;HPM_P2
2023/07/03 00:01:54;;;;;;;9.40;5.07;;;;;;;;;;5031043;28;20448;-81
2023/07/03 00:04:23;;;;;;;7.93;5.20;;;;;;;;;;5026721;28;20451;-81
2023/07/03 00:06:49;;;;;;;9.60;6.43;;;;;;;;;;5031787;28;20476;-81
2023/07/03 00:09:16;;;;;;;8.37;5.40;;;;;;;;;;5022208;28;20451;-81
2023/07/03 00:11:43;;;;;;;10.10;5.00;;;;;;;;;;5030386;28;20450;-81
2023/07/03 00:14:09;;;;;;;11.27;5.40;;;;;;;;;;5028785;28;20451;-82
2023/07/03 00:16:36;;;;;;;11.43;6.23;;;;;;;;;;5031191;28;20950;-81
2023/07/03 00:19:05;;;;;;;11.47;5.63;;;;;;;;;;5029052;28;20990;-81
2023/07/03 00:21:31;;;;;;;12.90;7.30;;;;;;;;;;5029500;28;20456;-81
2023/07/03 00:23:58;;;;;;;14.63;6.00;;;;;;;;;;5022683;28;20435;-81
2023/07/03 00:26:26;;;;;;;20.73;7.07;;;;;;;;;;5031799;28;20467;-81
2023/07/03 00:28:52;;;;;;;9.67;6.27;;;;;;;;;;5030202;28;21025;-79
2023/07/03 00:31:19;;;;;;;12.10;6.10;;;;;;;;;;5034070;28;20792;-81
2023/07/03 00:33:45;;;;;;;12.87;6.60;;;;;;;;;;5030994;28;20950;-81
2023/07/03 00:36:13;;;;;;;17.00;6.97;;;;;;;;;;5033888;28;20442;-82
2023/07/03 00:38:39;;;;;;;15.63;6.30;;;;;;;;;;5026991;28;20476;-82
2023/07/03 00:41:05;;;;;;;13.63;5.50;;;;;;;;;;5031067;28;20460;-81
2023/07/03 00:43:33;;;;;;;12.50;6.10;;;;;;;;;;5027308;28;20452;-81
2023/07/03 00:45:59;;;;;;;13.33;5.67;;;;;;;;;;5028105;28;20515;-82
2023/07/03 00:48:25;;;;;;;13.13;6.40;;;;;;;;;;5032513;28;20468;-81
2023/07/03 00:50:52;;;;;;;15.80;7.00;;;;;;;;;;5023390;28;20457;-81
2023/07/03 00:53:20;;;;;;;12.63;6.00;;;;;;;;;;5033365;28;20427;-81
2023/07/03 00:55:46;;;;;;;17.00;6.63;;;;;;;;;;5028937;28;20447;-82
2023/07/03 00:58:13;;;;;;;10.70;6.13;;;;;;;;;;5029694;28;20468;-80
2023/07/03 01:00:42;;;;;;;11.17;5.80;;;;;;;;;;5026903;28;20459;-81
2023/07/03 01:03:11;;;;;;;15.20;7.43;;;;;;;;;;5027088;28;20456;-80
2023/07/03 01:05:41;;;;;;;11.30;5.80;;;;;;;;;;5032904;28;20483;-81
2023/07/03 01:08:09;;;;;;;13.50;6.57;;;;;;;;;;5029720;28;20870;-81
2023/07/03 01:10:37;;;;;;;16.70;6.40;;;;;;;;;;5032484;28;20447;-80
2023/07/03 01:13:05;;;;;;;10.87;6.60;;;;;;;;;;5027364;28;20523;-81
2023/07/03 01:15:34;;;;;;;19.60;6.80;;;;;;;;;;5051788;28;20438;-82
2023/07/03 01:18:01;;;;;;;9.63;5.80;;;;;;;;;;5051616;28;20468;-81
2023/07/03 01:20:31;;;;;;;20.57;6.47;;;;;;;;;;5056620;28;20475;-81
2023/07/03 01:23:00;;;;;;;13.77;6.43;;;;;;;;;;5054510;28;20422;-82
2023/07/03 01:25:28;;;;;;;15.87;6.70;;;;;;;;;;5040107;28;20468;-81
2023/07/03 01:27:56;;;;;;;12.77;6.60;;;;;;;;;;5026168;28;20468;-81
2023/07/03 01:30:23;;;;;;;13.10;6.47;;;;;;;;;;5030823;28;20862;-81
2023/07/03 01:32:52;;;;;;;12.73;6.10;;;;;;;;;;5032935;28;20456;-81
2023/07/03 01:35:19;;;;;;;15.13;6.90;;;;;;;;;;5024703;28;20454;-81
2023/07/03 01:37:47;;;;;;;17.27;7.20;;;;;;;;;;5036798;28;20505;-80
2023/07/03 01:40:15;;;;;;;16.53;6.80;;;;;;;;;;5034508;28;20468;-81
2023/07/03 01:42:44;;;;;;;16.03;6.67;;;;;;;;;;5032033;28;20424;-81
2023/07/03 01:45:11;;;;;;;12.90;6.90;;;;;;;;;;5035074;28;20448;-81
2023/07/03 01:47:37;;;;;;;12.83;6.83;;;;;;;;;;5031163;28;21002;-80
2023/07/03 01:50:04;;;;;;;13.73;7.10;;;;;;;;;;5036443;28;20821;-81
2023/07/03 01:52:33;;;;;;;10.30;6.00;;;;;;;;;;5035904;28;20449;-81
2023/07/03 01:55:03;;;;;;;12.70;7.00;;;;;;;;;;5034317;28;20474;-81
2023/07/03 01:57:33;;;;;;;16.17;8.10;;;;;;;;;;5018902;28;20983;-81
2023/07/03 02:00:05;;;;;;;13.60;6.37;;;;;;;;;;5028397;28;20477;-81
2023/07/03 02:02:31;;;;;;;19.73;7.53;;;;;;;;;;5034991;28;20452;-80
2023/07/03 02:05:02;;;;;;;14.30;7.60;;;;;;;;;;5043336;28;20463;-80
2023/07/03 02:07:30;;;;;;;18.47;7.33;;;;;;;;;;5051259;28;20826;-81
2023/07/03 02:09:56;;;;;;;10.67;7.30;;;;;;;;;;5037958;28;20465;-81
2023/07/03 02:12:23;;;;;;;12.10;5.73;;;;;;;;;;5036311;28;20434;-81
2023/07/03 02:14:49;;;;;;;14.90;8.57;;;;;;;;;;5043042;28;20476;-81
2023/07/03 02:17:17;;;;;;;13.10;6.57;;;;;;;;;;5051073;28;20449;-81
2023/07/03 02:19:45;;;;;;;15.60;7.83;;;;;;;;;;5051631;28;20450;-81
2023/07/03 02:22:12;;;;;;;13.87;6.50;;;;;;;;;;5051554;28;20920;-81
2023/07/03 02:24:38;;;;;;;16.10;7.60;;;;;;;;;;5043036;28;20465;-80
2023/07/03 02:27:05;;;;;;;16.07;7.07;;;;;;;;;;5035619;28;20427;-80
2023/07/03 02:29:31;;;;;;;19.90;8.17;;;;;;;;;;5026448;28;20455;-80
2023/07/03 02:31:57;;;;;;;14.13;7.23;;;;;;;;;;5026847;28;20452;-81
2023/07/03 02:34:25;;;;;;;14.43;7.03;;;;;;;;;;5026527;28;20447;-80
2023/07/03 02:36:53;;;;;;;17.60;8.03;;;;;;;;;;5033878;28;20428;-81
2023/07/03 02:39:19;;;;;;;18.83;6.83;;;;;;;;;;5031753;28;20477;-80
2023/07/03 02:41:45;;;;;;;17.47;7.50;;;;;;;;;;5034807;28;20423;-81
2023/07/03 02:44:11;;;;;;;13.20;7.83;;;;;;;;;;5031504;28;20475;-81
2023/07/03 02:46:39;;;;;;;14.70;7.60;;;;;;;;;;5033167;28;20822;-80
2023/07/03 02:49:07;;;;;;;22.50;7.33;;;;;;;;;;5034407;28;20505;-81
2023/07/03 02:51:34;;;;;;;20.33;6.93;;;;;;;;;;5028562;28;20426;-80
2023/07/03 02:54:01;;;;;;;12.97;6.57;;;;;;;;;;5028834;28;20458;-81
2023/07/03 02:56:28;;;;;;;16.37;7.00;;;;;;;;;;5033653;28;20952;-80
2023/07/03 02:58:54;;;;;;;13.57;7.00;;;;;;;;;;5023694;28;20882;-80
2023/07/03 03:01:21;;;;;;;13.67;8.40;;;;;;;;;;5024799;28;20481;-80
2023/07/03 03:03:47;;;;;;;12.40;6.90;;;;;;;;;;5031379;28;20507;-80
2023/07/03 03:06:14;;;;;;;18.53;8.47;;;;;;;;;;5034755;28;20452;-80
2023/07/03 03:08:41;;;;;;;18.27;6.83;;;;;;;;;;5033534;28;20468;-81
2023/07/03 03:11:09;;;;;;;15.03;6.57;;;;;;;;;;5031440;28;20416;-80
2023/07/03 03:13:35;;;;;;;18.53;7.73;;;;;;;;;;5024907;28;20441;-81
2023/07/03 03:16:02;;;;;;;18.57;7.60;;;;;;;;;;5032310;28;20842;-80
2023/07/03 03:18:29;;;;;;;12.33;6.60;;;;;;;;;;5024194;28;20468;-81
2023/07/03 03:20:55;;;;;;;15.57;8.87;;;;;;;;;;5033356;28;20455;-81
2023/07/03 03:23:21;;;;;;;15.70;7.90;;;;;;;;;;5025368;28;20448;-80
2023/07/03 03:25:49;;;;;;;16.83;6.57;;;;;;;;;;5027533;28;20470;-80
2023/07/03 03:28:16;;;;;;;18.23;8.13;;;;;;;;;;5031795;28;20477;-81
2023/07/03 03:30:43;;;;;;;14.37;7.50;;;;;;;;;;5023156;28;20468;-80
2023/07/03 03:33:09;;;;;;;14.13;7.43;;;;;;;;;;5033839;28;20456;-80
2023/07/03 03:35:35;;;;;;;19.33;7.70;;;;;;;;;;5027301;28;20436;-80
2023/07/03 03:38:03;;;;;;;15.50;6.87;;;;;;;;;;5033527;28;20460;-80
2023/07/03 03:40:30;;;;;;;15.50;7.10;;;;;;;;;;5027220;28;20456;-80
2023/07/03 03:42:57;;;;;;;21.97;7.10;;;;;;;;;;5023447;28;20469;-80
2023/07/03 03:45:24;;;;;;;15.63;7.70;;;;;;;;;;5022143;28;20848;-81
2023/07/03 03:47:51;;;;;;;14.47;7.30;;;;;;;;;;5030100;28;20504;-80
2023/07/03 03:50:17;;;;;;;16.30;7.27;;;;;;;;;;5019329;28;20452;-80
2023/07/03 03:52:43;;;;;;;16.57;7.00;;;;;;;;;;5036206;28;20454;-80
2023/07/03 03:55:10;;;;;;;17.40;7.83;;;;;;;;;;5026877;28;20480;-80
2023/07/03 03:57:36;;;;;;;18.60;8.40;;;;;;;;;;5031265;28;20440;-80
2023/07/03 04:00:06;;;;;;;14.53;6.80;;;;;;;;;;5031897;28;20487;-80
2023/07/03 04:02:32;;;;;;;17.67;6.70;;;;;;;;;;5033805;28;20845;-81
2023/07/03 04:04:59;;;;;;;25.33;7.60;;;;;;;;;;5033303;28;20469;-80
2023/07/03 04:07:25;;;;;;;19.20;7.57;;;;;;;;;;5032841;28;20443;-81
2023/07/03 04:09:51;;;;;;;25.13;8.13;;;;;;;;;;5033271;28;20458;-80
2023/07/03 04:12:18;;;;;;;20.37;7.70;;;;;;;;;;5033112;28;20449;-80
2023/07/03 04:14:44;;;;;;;22.40;7.83;;;;;;;;;;5033144;28;20509;-80
2023/07/03 04:17:12;;;;;;;17.80;7.30;;;;;;;;;;5029709;28;20468;-80
2023/07/03 04:19:38;;;;;;;20.50;9.47;;;;;;;;;;5030040;28;20459;-81
2023/07/03 04:22:05;;;;;;;20.93;7.87;;;;;;;;;;5029602;28;20480;-81
2023/07/03 04:24:31;;;;;;;17.17;7.60;;;;;;;;;;5030994;28;20559;-81
2023/07/03 04:26:59;;;;;;;23.63;7.57;;;;;;;;;;5033303;28;20426;-81
2023/07/03 04:29:25;;;;;;;17.93;8.10;;;;;;;;;;5032569;28;20476;-81
2023/07/03 04:31:53;;;;;;;17.73;7.13;;;;;;;;;;5052924;28;20422;-81
2023/07/03 04:34:21;;;;;;;23.03;7.87;;;;;;;;;;5048111;28;20953;-81
2023/07/03 04:36:48;;;;;;;20.90;7.50;;;;;;;;;;5032420;28;20506;-81
2023/07/03 04:39:14;;;;;;;20.40;8.10;;;;;;;;;;5039848;28;20968;-81
2023/07/03 04:41:42;;;;;;;19.40;7.27;;;;;;;;;;5042146;28;20975;-81
2023/07/03 04:44:12;;;;;;;18.53;8.67;;;;;;;;;;5051932;28;20482;-81
2023/07/03 04:46:38;;;;;;;15.67;7.50;;;;;;;;;;5053403;28;20467;-81
2023/07/03 04:49:05;;;;;;;18.13;7.37;;;;;;;;;;5045148;28;20454;-81
2023/07/03 04:51:33;;;;;;;17.10;7.30;;;;;;;;;;5048037;28;20434;-81
2023/07/03 04:54:00;;;;;;;21.63;8.83;;;;;;;;;;5033846;28;20793;-81
2023/07/03 04:56:26;;;;;;;16.57;7.90;;;;;;;;;;5022736;28;20427;-81
2023/07/03 04:58:53;;;;;;;15.80;7.00;;;;;;;;;;5028284;28;20469;-81
2023/07/03 05:01:19;;;;;;;18.77;7.30;;;;;;;;;;5032639;28;20451;-81
2023/07/03 05:03:46;;;;;;;18.43;7.23;;;;;;;;;;5031685;28;20444;-81
2023/07/03 05:06:12;;;;;;;16.47;7.40;;;;;;;;;;5031323;28;20435;-80
2023/07/03 05:08:40;;;;;;;15.33;5.90;;;;;;;;;;5029038;28;20487;-81
2023/07/03 05:11:06;;;;;;;11.67;7.03;;;;;;;;;;5026506;28;20435;-81
2023/07/03 05:13:33;;;;;;;10.60;5.50;;;;;;;;;;5033273;28;20439;-81
2023/07/03 05:15:59;;;;;;;15.63;6.23;;;;;;;;;;5030831;28;20456;-80
2023/07/03 05:18:25;;;;;;;14.17;6.57;;;;;;;;;;5031643;28;20444;-80
2023/07/03 05:20:52;;;;;;;21.43;6.73;;;;;;;;;;5018168;28;20531;-81
2023/07/03 05:23:19;;;;;;;19.10;7.50;;;;;;;;;;5030261;28;20452;-81
2023/07/03 05:25:47;;;;;;;20.40;6.70;;;;;;;;;;5025901;28;20444;-80
2023/07/03 05:28:13;;;;;;;17.10;7.07;;;;;;;;;;5028923;28;20469;-81
2023/07/03 05:30:40;;;;;;;19.27;6.90;;;;;;;;;;5032030;28;20484;-81
2023/07/03 05:33:06;;;;;;;22.70;7.60;;;;;;;;;;5028655;28;20843;-82
2023/07/03 05:35:33;;;;;;;22.40;6.73;;;;;;;;;;5032157;28;20473;-81
2023/07/03 05:38:00;;;;;;;17.37;7.30;;;;;;;;;;5026398;28;20444;-80
2023/07/03 05:40:27;;;;;;;13.07;5.43;;;;;;;;;;5030558;28;20451;-82
2023/07/03 05:42:55;;;;;;;10.67;6.30;;;;;;;;;;5033129;28;20534;-81
2023/07/03 05:45:21;;;;;;;10.27;5.30;;;;;;;;;;5029019;28;20828;-80
2023/07/03 05:47:47;;;;;;;12.40;5.20;;;;;;;;;;5021351;28;20813;-80
2023/07/03 05:50:14;;;;;;;14.10;5.67;;;;;;;;;;5024196;28;20535;-80
2023/07/03 05:52:41;;;;;;;12.83;6.03;;;;;;;;;;5031776;28;20423;-80
2023/07/03 05:55:08;;;;;;;17.03;7.10;;;;;;;;;;5023455;28;20505;-81
2023/07/03 05:57:34;;;;;;;16.33;6.77;;;;;;;;;;5030337;28;20458;-81
2023/07/03 06:00:05;;;;;;;15.57;7.53;;;;;;;;;;5032487;28;20480;-80
2023/07/03 06:02:31;;;;;;;22.87;6.33;;;;;;;;;;5026281;28;20472;-81
2023/07/03 06:04:58;;;;;;;13.90;6.20;;;;;;;;;;5032795;28;21017;-80
2023/07/03 06:07:25;;;;;;;20.20;7.20;;;;;;;;;;5028661;28;20443;-80
2023/07/03 06:09:52;;;;;;;20.40;6.60;;;;;;;;;;5036027;28;20450;-81
2023/07/03 06:12:19;;;;;;;15.23;6.87;;;;;;;;;;5023244;28;20420;-81
2023/07/03 06:14:45;;;;;;;15.07;6.53;;;;;;;;;;5033104;28;20462;-80
2023/07/03 06:17:13;;;;;;;22.37;6.30;;;;;;;;;;5021172;28;20935;-81
2023/07/03 06:19:40;;;;;;;16.43;6.33;;;;;;;;;;5016346;28;20477;-80
2023/07/03 06:22:06;;;;;;;14.20;5.43;;;;;;;;;;5034386;28;20463;-80
2023/07/03 06:24:33;;;;;;;17.60;6.73;;;;;;;;;;5035507;28;20472;-81
2023/07/03 06:27:00;;;;;;;13.30;6.40;;;;;;;;;;5033453;28;20452;-80
2023/07/03 06:29:26;;;;;;;19.67;6.90;;;;;;;;;;5029070;28;20475;-80
2023/07/03 06:31:52;;;;;;;15.47;5.97;;;;;;;;;;5030690;28;20449;-80
2023/07/03 06:34:20;;;;;;;13.47;5.40;;;;;;;;;;5027183;28;20472;-80
2023/07/03 06:36:46;;;;;;;16.90;6.50;;;;;;;;;;5035783;28;20833;-80
2023/07/03 06:39:13;;;;;;;14.70;5.93;;;;;;;;;;5034319;28;20477;-80
2023/07/03 06:41:39;;;;;;;15.43;5.43;;;;;;;;;;5034642;28;20516;-80
2023/07/03 06:44:06;;;;;;;16.70;6.90;;;;;;;;;;5019362;28;20461;-80
2023/07/03 06:46:33;;;;;;;12.53;4.73;;;;;;;;;;5033863;28;20931;-80
2023/07/03 06:48:59;;;;;;;11.20;4.90;;;;;;;;;;5023884;28;20477;-80
2023/07/03 06:51:27;;;;;;;12.17;5.03;;;;;;;;;;5037709;28;20452;-80
2023/07/03 06:53:53;;;;;;;18.23;6.23;;;;;;;;;;5035012;28;20468;-80
2023/07/03 06:56:20;;;;;;;12.10;5.00;;;;;;;;;;5032158;28;20448;-80
2023/07/03 06:58:48;;;;;;;16.43;4.50;;;;;;;;;;5024658;28;20477;-80
2023/07/03 07:01:15;;;;;;;10.00;4.40;;;;;;;;;;5029420;28;20488;-80
2023/07/03 07:03:41;;;;;;;13.93;5.30;;;;;;;;;;5029928;28;20468;-81
2023/07/03 07:06:09;;;;;;;15.80;4.40;;;;;;;;;;5035651;28;20456;-81
2023/07/03 07:08:36;;;;;;;15.23;5.10;;;;;;;;;;5034503;28;20473;-80
2023/07/03 07:11:03;;;;;;;14.43;5.07;;;;;;;;;;5030393;28;20453;-80
2023/07/03 07:13:29;;;;;;;13.30;4.50;;;;;;;;;;5034130;28;20465;-80
2023/07/03 07:15:56;;;;;;;8.77;3.90;;;;;;;;;;5033401;28;20460;-80
2023/07/03 07:18:22;;;;;;;12.80;4.43;;;;;;;;;;5034728;28;20476;-80
2023/07/03 07:20:48;;;;;;;13.43;4.53;;;;;;;;;;5033790;28;20441;-80
2023/07/03 07:23:15;;;;;;;10.90;4.70;;;;;;;;;;5026918;28;20477;-81
2023/07/03 07:25:42;;;;;;;12.07;3.90;;;;;;;;;;5030437;28;20465;-81
2023/07/03 07:28:09;;;;;;;18.67;4.33;;;;;;;;;;5025584;28;20476;-81
2023/07/03 07:30:40;;;;;;;8.60;3.50;;;;;;;;;;5029544;28;20947;-81
2023/07/03 07:33:06;;;;;;;12.83;4.87;;;;;;;;;;5032433;28;20476;-80
2023/07/03 07:35:34;;;;;;;14.10;4.20;;;;;;;;;;5026046;28;20468;-80
2023/07/03 07:38:01;;;;;;;9.00;4.07;;;;;;;;;;5032546;28;20554;-81
2023/07/03 07:40:27;;;;;;;11.10;3.17;;;;;;;;;;5026581;28;20479;-81
2023/07/03 07:42:55;;;;;;;7.33;4.30;;;;;;;;;;5027746;28;20999;-80
2023/07/03 07:45:21;;;;;;;7.47;3.73;;;;;;;;;;5030621;28;20472;-81
2023/07/03 07:47:48;;;;;;;11.13;3.70;;;;;;;;;;5019707;28;20485;-80
2023/07/03 07:50:14;;;;;;;10.27;3.30;;;;;;;;;;5023310;28;20951;-80
2023/07/03 07:52:41;;;;;;;8.90;3.43;;;;;;;;;;5027260;28;20986;-81
2023/07/03 07:55:07;;;;;;;10.83;3.80;;;;;;;;;;5024711;28;20963;-81
2023/07/03 07:57:35;;;;;;;10.43;3.63;;;;;;;;;;5025814;28;20839;-80
2023/07/03 08:00:04;;;;;;;6.57;2.77;;;;;;;;;;5027928;28;20452;-81
2023/07/03 08:02:30;;;;;;;13.83;3.83;;;;;;;;;;5028044;28;20576;-81
2023/07/03 08:04:57;;;;;;;11.03;3.50;;;;;;;;;;5017633;28;20427;-80
2023/07/03 08:07:23;;;;;;;10.80;3.70;;;;;;;;;;5033541;28;20476;-81
2023/07/03 08:09:50;;;;;;;11.00;4.60;;;;;;;;;;5026101;28;20921;-80
2023/07/03 08:12:16;;;;;;;8.60;3.60;;;;;;;;;;5033013;28;20444;-81
2023/07/03 08:14:42;;;;;;;10.93;3.80;;;;;;;;;;5032733;28;20479;-80
2023/07/03 08:17:10;;;;;;;13.37;4.60;;;;;;;;;;5034263;28;20448;-81
2023/07/03 08:19:36;;;;;;;11.33;4.07;;;;;;;;;;5033464;28;20464;-80
2023/07/03 08:22:02;;;;;;;9.87;4.00;;;;;;;;;;5033887;28;20495;-81
2023/07/03 08:24:29;;;;;;;14.40;5.00;;;;;;;;;;5030803;28;20443;-81
2023/07/03 08:26:55;;;;;;;9.90;4.00;;;;;;;;;;5026221;28;20452;-81
2023/07/03 08:29:22;;;;;;;12.50;4.50;;;;;;;;;;5027748;28;20474;-80
2023/07/03 08:31:48;;;;;;;11.93;4.47;;;;;;;;;;5033686;28;20460;-81
2023/07/03 08:34:16;;;;;;;8.43;3.60;;;;;;;;;;5029736;28;20466;-81
2023/07/03 08:36:42;;;;;;;7.47;3.57;;;;;;;;;;5021860;28;20452;-81
2023/07/03 08:39:09;;;;;;;9.87;3.70;;;;;;;;;;5015806;28;20485;-81
2023/07/03 08:41:40;;;;;;;9.43;3.50;;;;;;;;;;5026203;28;20484;-81
2023/07/03 08:44:08;;;;;;;4.57;2.77;;;;;;;;;;5022146;28;20469;-81
2023/07/03 08:46:35;;;;;;;9.17;3.40;;;;;;;;;;5026470;28;20460;-81
2023/07/03 08:49:04;;;;;;;6.80;3.30;;;;;;;;;;5024229;28;20546;-81
2023/07/03 08:51:33;;;;;;;8.60;2.70;;;;;;;;;;5031789;28;20543;-81
2023/07/03 08:54:04;;;;;;;10.43;3.50;;;;;;;;;;5028262;28;20465;-81
2023/07/03 08:56:32;;;;;;;8.63;3.27;;;;;;;;;;5025632;28;20829;-81
2023/07/03 08:58:59;;;;;;;11.90;4.83;;;;;;;;;;5028634;28;20479;-80
2023/07/03 09:01:30;;;;;;;7.83;3.00;;;;;;;;;;5030994;28;20452;-81
2023/07/03 09:04:04;;;;;;;6.50;3.20;;;;;;;;;;5025559;28;20465;-80
2023/07/03 09:06:36;;;;;;;7.60;3.03;;;;;;;;;;5023999;28;20445;-81
2023/07/03 09:09:07;;;;;;;6.37;2.97;;;;;;;;;;5032610;28;20480;-81
2023/07/03 09:11:36;;;;;;;9.73;3.13;;;;;;;;;;5030328;28;20494;-81
2023/07/03 09:14:03;;;;;;;5.50;2.87;;;;;;;;;;5021092;28;20469;-80
2023/07/03 09:16:29;;;;;;;7.40;2.83;;;;;;;;;;5024890;28;20450;-81
2023/07/03 09:18:58;;;;;;;5.20;2.27;;;;;;;;;;5026240;28;20981;-80
2023/07/03 09:21:26;;;;;;;6.93;2.50;;;;;;;;;;5031596;28;20965;-81
2023/07/03 09:23:56;;;;;;;7.10;2.97;;;;;;;;;;5032247;28;20530;-80
2023/07/03 09:26:24;;;;;;;7.43;2.33;;;;;;;;;;5030861;28;20519;-81
2023/07/03 09:28:51;;;;;;;7.17;3.20;;;;;;;;;;5025911;28;20477;-81
2023/07/03 09:31:17;;;;;;;5.80;3.00;;;;;;;;;;5033118;28;20950;-80
2023/07/03 09:33:44;;;;;;;5.63;2.10;;;;;;;;;;5031011;28;20476;-81
2023/07/03 09:36:20;;;;;;;7.67;2.53;;;;;;;;;;5031618;28;20452;-82
2023/07/03 09:38:47;;;;;;;5.40;2.60;;;;;;;;;;5036165;28;20472;-80
2023/07/03 09:41:23;;;;;;;4.47;2.30;;;;;;;;;;5036761;28;20479;-80
2023/07/03 09:43:50;;;;;;;7.63;2.97;;;;;;;;;;5030403;28;20472;-80
2023/07/03 09:46:17;;;;;;;5.30;2.23;;;;;;;;;;5036415;28;20543;-80
2023/07/03 09:48:44;;;;;;;4.00;2.60;;;;;;;;;;5035266;28;20862;-80
2023/07/03 09:51:22;;;;;;;4.63;2.37;;;;;;;;;;5032606;28;20448;-80
2023/07/03 09:53:48;;;;;;;3.50;2.00;;;;;;;;;;5034933;28;20479;-79
2023/07/03 09:56:18;;;;;;;6.47;2.60;;;;;;;;;;5034159;28;20456;-80
2023/07/03 09:58:45;;;;;;;4.30;2.57;;;;;;;;;;5035683;28;20986;-80
2023/07/03 10:01:16;;;;;;;5.40;2.60;;;;;;;;;;5035685;28;20953;-80
2023/07/03 10:03:42;;;;;;;6.83;2.90;;;;;;;;;;5035675;28;20523;-80
2023/07/03 10:06:13;;;;;;;7.23;3.10;;;;;;;;;;5036993;28;20457;-81
2023/07/03 10:08:43;;;;;;;8.53;3.70;;;;;;;;;;5031871;28;20483;-81
2023/07/03 10:11:10;;;;;;;5.33;2.60;;;;;;;;;;5027363;28;20963;-81
2023/07/03 10:13:38;;;;;;;7.17;2.40;;;;;;;;;;5032367;28;20484;-81
2023/07/03 10:16:07;;;;;;;5.37;2.67;;;;;;;;;;5033307;28;20602;-81
2023/07/03 10:18:34;;;;;;;11.03;3.37;;;;;;;;;;5031753;28;20468;-80
2023/07/03 10:21:02;;;;;;;5.13;3.07;;;;;;;;;;5023050;28;20456;-81
2023/07/03 10:23:31;;;;;;;8.13;2.70;;;;;;;;;;5033874;28;20479;-81
2023/07/03 10:26:04;;;;;;;11.10;3.10;;;;;;;;;;5027370;28;20967;-81
2023/07/03 10:28:33;;;;;;;6.73;2.40;;;;;;;;;;5035851;28;20480;-83
2023/07/03 10:31:02;;;;;;;7.90;2.07;;;;;;;;;;5026059;28;20940;-80
2023/07/03 10:33:32;;;;;;;6.60;2.30;;;;;;;;;;5027594;28;20482;-80
2023/07/03 10:36:00;;;;;;;5.13;2.40;;;;;;;;;;5032037;28;20826;-81
2023/07/03 10:38:33;;;;;;;4.80;1.70;;;;;;;;;;5032699;28;20548;-81
2023/07/03 10:41:03;;;;;;;6.73;2.07;;;;;;;;;;5034588;28;20925;-80
2023/07/03 10:43:46;;;;;;;4.93;2.30;;;;;;;;;;5020768;28;20536;-80
2023/07/03 10:46:16;;;;;;;3.20;1.97;;;;;;;;;;5029584;28;20419;-80
2023/07/03 10:48:43;;;;;;;4.50;2.50;;;;;;;;;;5033778;28;20481;-82
2023/07/03 10:51:13;;;;;;;3.80;2.00;;;;;;;;;;5024831;28;20443;-81
2023/07/03 10:53:42;;;;;;;4.70;2.80;;;;;;;;;;5026577;28;20469;-82
2023/07/03 10:56:12;;;;;;;6.87;2.37;;;;;;;;;;5016285;28;20446;-80
2023/07/03 10:58:41;;;;;;;7.03;2.40;;;;;;;;;;5032767;28;20481;-80
2023/07/03 11:01:11;;;;;;;4.10;2.30;;;;;;;;;;5034564;28;20462;-82
2023/07/03 11:03:43;;;;;;;5.07;2.40;;;;;;;;;;5035043;28;20452;-82
2023/07/03 11:06:13;;;;;;;5.90;2.70;;;;;;;;;;5028602;28;20445;-82
2023/07/03 11:08:43;;;;;;;7.00;2.60;;;;;;;;;;5024247;28;20476;-82
2023/07/03 11:11:15;;;;;;;5.90;2.40;;;;;;;;;;5027940;28;20793;-83
2023/07/03 11:13:49;;;;;;;8.20;2.10;;;;;;;;;;5027995;28;20889;-82
2023/07/03 11:16:16;;;;;;;3.67;1.50;;;;;;;;;;5036377;28;20544;-80
2023/07/03 11:18:52;;;;;;;3.93;1.70;;;;;;;;;;5029863;28;20483;-79
2023/07/03 11:21:24;;;;;;;4.20;1.73;;;;;;;;;;5036155;28;20444;-82
2023/07/03 11:23:55;;;;;;;3.70;1.63;;;;;;;;;;5030867;28;20480;-81
2023/07/03 11:26:26;;;;;;;5.03;1.67;;;;;;;;;;5034306;28;20978;-81
2023/07/03 11:28:55;;;;;;;4.57;1.80;;;;;;;;;;5035283;28;20560;-80
2023/07/03 11:31:23;;;;;;;5.37;1.83;;;;;;;;;;5033145;28;20793;-80
2023/07/03 11:33:52;;;;;;;6.53;1.90;;;;;;;;;;5030445;28;20560;-81
2023/07/03 11:36:39;;;;;;;3.80;1.97;;;;;;;;;;5029710;28;20448;-80
2023/07/03 11:39:19;;;;;;;3.67;1.63;;;;;;;;;;5034034;28;20972;-80
2023/07/03 11:41:49;;;;;;;5.57;1.77;;;;;;;;;;5030930;28;20484;-80
2023/07/03 11:44:30;;;;;;;5.03;2.10;;;;;;;;;;5033175;28;20469;-80
2023/07/03 11:46:58;;;;;;;4.63;1.90;;;;;;;;;;5026265;28;20496;-80
2023/07/03 11:49:26;;;;;;;3.20;1.97;;;;;;;;;;5022557;28;20482;-80
2023/07/03 11:51:56;;;;;;;4.87;2.27;;;;;;;;;;5026086;28;20416;-80
2023/07/03 11:54:24;;;;;;;5.40;2.27;;;;;;;;;;5033012;28;20477;-80
2023/07/03 11:56:53;;;;;;;3.90;1.97;;;;;;;;;;5031523;28;20449;-80
2023/07/03 11:59:27;;;;;;;3.97;2.40;;;;;;;;;;5029005;28;20473;-81
2023/07/03 12:01:54;;;;;;;6.60;2.50;;;;;;;;;;5025700;28;20464;-79
2023/07/03 12:04:39;;;;;;;4.90;1.70;;;;;;;;;;5033395;28;20469;-81
2023/07/03 12:07:07;;;;;;;5.20;2.10;;;;;;;;;;5025945;28;20487;-80
2023/07/03 12:09:33;;;;;;;5.80;1.93;;;;;;;;;;5033468;28;20842;-80
2023/07/03 12:12:20;;;;;;;5.50;2.43;;;;;;;;;;5033163;28;20449;-80
2023/07/03 12:14:53;;;;;;;4.07;2.07;;;;;;;;;;5030453;28;20994;-81
2023/07/03 12:17:21;;;;;;;5.00;2.00;;;;;;;;;;5032693;28;21030;-81
2023/07/03 12:19:48;;;;;;;5.27;2.27;;;;;;;;;;5029635;28;20962;-80
2023/07/03 12:22:18;;;;;;;5.93;2.00;;;;;;;;;;5030830;28;20452;-81
2023/07/03 12:24:46;;;;;;;10.13;3.03;;;;;;;;;;5027953;28;20488;-80
2023/07/03 12:27:14;;;;;;;5.40;2.53;;;;;;;;;;5027315;28;20830;-80
2023/07/03 12:29:45;;;;;;;4.90;2.57;;;;;;;;;;5028280;28;20552;-80
2023/07/03 12:32:11;;;;;;;6.90;2.50;;;;;;;;;;5013858;28;20454;-80
2023/07/03 12:34:39;;;;;;;5.50;2.40;;;;;;;;;;5020088;28;21082;-80
2023/07/03 12:37:08;;;;;;;7.87;2.67;;;;;;;;;;5028234;28;20456;-80
2023/07/03 12:39:37;;;;;;;8.53;3.30;;;;;;;;;;5022254;28;20560;-80
2023/07/03 12:42:10;;;;;;;10.70;3.30;;;;;;;;;;5015680;28;20456;-80
2023/07/03 12:44:37;;;;;;;5.93;2.50;;;;;;;;;;5024744;28;20484;-79
2023/07/03 12:47:08;;;;;;;3.60;2.50;;;;;;;;;;5033021;28;20962;-80
2023/07/03 12:49:46;;;;;;;8.17;2.30;;;;;;;;;;5033055;28;20472;-80
2023/07/03 12:52:14;;;;;;;4.93;2.40;;;;;;;;;;5031195;28;20455;-80
2023/07/03 12:54:41;;;;;;;5.77;2.97;;;;;;;;;;5021076;28;20997;-80
2023/07/03 12:57:08;;;;;;;4.63;2.40;;;;;;;;;;5013418;28;20457;-80
2023/07/03 12:59:35;;;;;;;5.80;2.47;;;;;;;;;;5012735;28;20822;-80
2023/07/03 13:02:02;;;;;;;4.10;2.00;;;;;;;;;;5028096;28;20464;-79
2023/07/03 13:04:29;;;;;;;7.20;2.47;;;;;;;;;;5028055;28;20487;-80
2023/07/03 13:06:56;;;;;;;5.70;2.13;;;;;;;;;;5033002;28;20906;-80
2023/07/03 13:09:23;;;;;;;6.97;2.47;;;;;;;;;;5023772;28;20481;-79
2023/07/03 13:11:51;;;;;;;9.00;1.97;;;;;;;;;;5024403;28;20467;-80
2023/07/03 13:14:18;;;;;;;4.87;1.83;;;;;;;;;;5024793;28;20475;-80
2023/07/03 13:16:45;;;;;;;4.43;2.27;;;;;;;;;;5030199;28;20445;-80
2023/07/03 13:19:12;;;;;;;5.10;1.80;;;;;;;;;;5029482;28;20477;-80
2023/07/03 13:21:39;;;;;;;5.20;1.70;;;;;;;;;;5027487;28;20876;-80
2023/07/03 13:24:08;;;;;;;4.87;2.50;;;;;;;;;;5022488;28;20477;-80
2023/07/03 13:26:35;;;;;;;6.40;2.33;;;;;;;;;;5026796;28;20451;-80
2023/07/03 13:29:04;;;;;;;6.53;2.10;;;;;;;;;;5020638;28;20564;-80
2023/07/03 13:31:32;;;;;;;5.20;2.10;;;;;;;;;;5023833;28;20492;-80
2023/07/03 13:34:01;;;;;;;6.07;2.30;;;;;;;;;;5031750;28;20475;-80
2023/07/03 13:36:30;;;;;;;7.27;2.70;;;;;;;;;;5030379;28;20828;-80
2023/07/03 13:39:01;;;;;;;7.20;2.10;;;;;;;;;;5032091;28;20527;-80
2023/07/03 13:41:27;;;;;;;4.20;1.70;;;;;;;;;;5032817;28;20453;-80
2023/07/03 13:43:55;;;;;;;6.40;2.33;;;;;;;;;;5032338;28;20477;-79
2023/07/03 13:46:23;;;;;;;3.37;1.87;;;;;;;;;;5029372;28;20479;-80
2023/07/03 13:48:50;;;;;;;3.03;1.70;;;;;;;;;;5031646;28;20479;-80
2023/07/03 13:51:16;;;;;;;6.77;2.00;;;;;;;;;;5032391;28;20440;-80
2023/07/03 13:53:44;;;;;;;6.37;1.80;;;;;;;;;;5024084;28;20469;-80
2023/07/03 13:56:11;;;;;;;6.63;2.20;;;;;;;;;;5032275;28;20938;-80
2023/07/03 13:58:37;;;;;;;5.50;1.57;;;;;;;;;;5022480;28;20505;-80
2023/07/03 14:01:05;;;;;;;3.63;1.67;;;;;;;;;;5033061;28;20437;-80
2023/07/03 14:03:33;;;;;;;3.20;1.70;;;;;;;;;;5025554;28;21007;-80
2023/07/03 14:05:59;;;;;;;2.23;1.20;;;;;;;;;;5030845;28;20533;-80
2023/07/03 14:08:28;;;;;;;6.13;1.83;;;;;;;;;;5030274;28;20483;-80
2023/07/03 14:10:57;;;;;;;4.73;2.00;;;;;;;;;;5026070;28;20456;-80
2023/07/03 14:13:23;;;;;;;7.07;1.80;;;;;;;;;;5022018;28;20481;-80
2023/07/03 14:15:50;;;;;;;5.20;1.50;;;;;;;;;;5028179;28;20445;-80
2023/07/03 14:18:17;;;;;;;3.80;1.73;;;;;;;;;;5027642;28;20875;-80
2023/07/03 14:20:45;;;;;;;4.60;1.80;;;;;;;;;;5032319;28;20506;-80
2023/07/03 14:23:12;;;;;;;7.13;2.27;;;;;;;;;;5031779;28;20491;-80
2023/07/03 14:25:38;;;;;;;7.50;1.73;;;;;;;;;;5033438;28;20451;-80
2023/07/03 14:28:05;;;;;;;6.10;2.80;;;;;;;;;;5035360;28;20473;-80
2023/07/03 14:30:32;;;;;;;3.33;2.10;;;;;;;;;;5019246;28;20507;-79
2023/07/03 14:32:58;;;;;;;9.17;2.43;;;;;;;;;;5029025;28;20476;-80
2023/07/03 14:35:25;;;;;;;6.13;2.27;;;;;;;;;;5028060;28;20446;-80
2023/07/03 14:37:53;;;;;;;5.70;2.83;;;;;;;;;;5026535;28;20466;-80
2023/07/03 14:40:19;;;;;;;6.40;3.17;;;;;;;;;;5036099;28;20451;-80